Terminal Aerodrome Forecast
Issued by NWS

Home | Current Version | Previous Version | Text Only | Print | Product List | Glossary On
Versions: 1 2 3 4 5 6 7 8 9 10 11 12 13 14 15 16 17 18 19 20 21 22 23 24 25 26
430
FTUS44 KBMX 031322 AAA
TAFTOI
TAF AMD
KTOI 031322Z 0313/0412 28004KT P6SM VCSH SCT006 OVC015
      TEMPO 0313/0315 BKN006
     FM031600 25007KT P6SM VCSH BKN025
     FM031800 28007KT P6SM VCTS BKN035CB
     FM032300 29007KT P6SM VCSH BKN045
     FM040200 27004KT P6SM BKN060=

USA.gov is the U.S. government's official web portal to all federal, state and local government web resources and services.